Time;durP1;ratioP1;P1;durP2;ratioP2;P2;SDS_P1;SDS_P2;PMS_P1;PMS_P2;Temp;Humidity;BMP_temperature;BMP_pressure;BME280_temperature;BME280_humidity;BME280_pressure;Samples;Min_cycle;Max_cycle;Signal;HPM_P1;HPM_P2
2022/07/30 00:01:20;;;;;;;6.18;3.08;;;27.20;96.70;;;;;;5070944;28;20048;-84
2022/07/30 00:03:49;;;;;;;7.75;3.60;;;27.20;96.70;;;;;;5074200;28;20036;-84
2022/07/30 00:06:18;;;;;;;5.15;3.38;;;27.20;96.70;;;;;;5099318;28;20041;-84
2022/07/30 00:08:47;;;;;;;7.82;3.65;;;27.20;96.70;;;;;;5064153;28;20456;-84
2022/07/30 00:11:15;;;;;;;8.45;3.78;;;27.10;96.70;;;;;;5080028;28;20147;-84
2022/07/30 00:13:44;;;;;;;7.55;3.17;;;27.10;96.70;;;;;;5053483;28;20556;-84
2022/07/30 00:16:12;;;;;;;8.13;3.50;;;27.10;96.70;;;;;;5085528;28;20112;-84
2022/07/30 00:18:42;;;;;;;8.55;3.70;;;27.10;96.70;;;;;;5071554;28;20041;-84
2022/07/30 00:21:11;;;;;;;7.70;3.85;;;27.00;96.70;;;;;;5085842;28;20071;-84
2022/07/30 00:24:00;;;;;;;7.63;3.42;;;27.00;96.70;;;;;;5075282;28;20044;-84
2022/07/30 00:26:29;;;;;;;6.93;3.55;;;26.90;96.70;;;;;;5055084;28;20088;-84
2022/07/30 00:28:58;;;;;;;9.35;3.58;;;27.00;96.70;;;;;;5063369;28;20044;-84
2022/07/30 00:31:28;;;;;;;9.75;3.35;;;27.00;96.70;;;;;;5065744;28;20036;-84
2022/07/30 00:33:58;;;;;;;7.43;3.50;;;27.00;96.70;;;;;;5092119;28;20502;-85
2022/07/30 00:36:27;;;;;;;6.25;3.10;;;27.00;96.70;;;;;;5047522;28;20140;-84
2022/07/30 00:38:56;;;;;;;6.35;3.33;;;27.10;96.70;;;;;;5069833;28;20512;-84
2022/07/30 00:41:25;;;;;;;5.68;3.53;;;27.00;96.70;;;;;;5083247;28;20122;-84
2022/07/30 00:43:53;;;;;;;7.63;3.15;;;27.00;96.70;;;;;;5057215;28;20041;-84
2022/07/30 00:46:22;;;;;;;5.32;3.17;;;27.00;96.70;;;;;;5068348;28;20543;-84
2022/07/30 00:48:53;;;;;;;4.80;2.85;;;27.00;96.70;;;;;;5088368;28;20045;-84
2022/07/30 00:51:23;;;;;;;9.85;3.92;;;27.10;96.70;;;;;;5059761;28;20050;-84
2022/07/30 00:53:56;;;;;;;8.48;3.47;;;27.20;96.70;;;;;;5079124;28;20053;-85
2022/07/30 00:56:25;;;;;;;7.85;3.15;;;27.20;96.70;;;;;;5075593;28;20111;-84
2022/07/30 00:58:54;;;;;;;6.07;3.30;;;27.20;96.70;;;;;;5050672;28;20056;-85
2022/07/30 01:01:22;;;;;;;7.25;3.25;;;27.20;96.70;;;;;;5090504;28;20505;-85
2022/07/30 01:03:51;;;;;;;8.63;3.47;;;27.10;96.70;;;;;;5084860;28;20044;-85
2022/07/30 01:06:20;;;;;;;5.30;2.97;;;27.10;96.70;;;;;;5080353;28;20050;-85
2022/07/30 01:08:50;;;;;;;6.22;3.38;;;27.20;96.70;;;;;;5075174;28;20047;-85
2022/07/30 01:11:19;;;;;;;5.95;3.33;;;27.10;96.70;;;;;;5068015;28;20138;-85
2022/07/30 01:13:48;;;;;;;5.25;3.33;;;27.20;96.70;;;;;;5070214;28;20136;-85
2022/07/30 01:16:20;;;;;;;4.53;3.40;;;27.40;96.70;;;;;;5062313;28;20047;-84
2022/07/30 01:21:40;;;;;;;5.93;3.47;;;27.40;96.70;;;;;;5066082;28;20041;-85
2022/07/30 01:24:25;;;;;;;8.18;3.45;;;27.40;96.70;;;;;;5073570;28;20052;-85
2022/07/30 01:26:56;;;;;;;6.63;3.40;;;27.30;96.70;;;;;;5063667;28;20053;-85
2022/07/30 01:29:28;;;;;;;6.68;3.38;;;27.30;96.70;;;;;;5077408;28;20123;-85
2022/07/30 01:31:58;;;;;;;6.32;3.40;;;27.40;96.70;;;;;;5066360;28;20045;-85
2022/07/30 01:34:31;;;;;;;5.80;3.15;;;27.40;96.70;;;;;;5067352;28;20083;-84
2022/07/30 01:37:02;;;;;;;6.68;3.40;;;27.50;96.70;;;;;;5068224;28;20048;-84
2022/07/30 01:39:32;;;;;;;6.50;3.70;;;27.50;96.70;;;;;;5091734;28;20059;-84
2022/07/30 01:42:06;;;;;;;9.07;3.47;;;27.50;96.70;;;;;;5068650;28;20062;-84
2022/07/30 01:44:36;;;;;;;7.70;3.78;;;27.50;96.70;;;;;;5083974;28;20432;-85
2022/07/30 01:47:07;;;;;;;8.20;3.10;;;27.40;96.70;;;;;;5082400;28;20048;-85
2022/07/30 01:49:38;;;;;;;5.70;3.58;;;27.40;96.70;;;;;;5080920;28;20079;-85
2022/07/30 01:52:08;;;;;;;6.55;4.03;;;27.40;96.70;;;;;;5066913;28;20052;-85
2022/07/30 01:54:39;;;;;;;6.32;2.90;;;27.50;96.70;;;;;;5058294;28;20052;-85
2022/07/30 01:57:09;;;;;;;6.97;3.45;;;27.50;96.70;;;;;;5068960;28;20474;-85
2022/07/30 01:59:40;;;;;;;7.63;3.42;;;27.50;96.70;;;;;;5068007;28;20406;-85
2022/07/30 02:02:09;;;;;;;7.32;3.53;;;27.50;96.70;;;;;;5073893;28;20052;-85
2022/07/30 02:04:37;;;;;;;6.07;3.33;;;27.50;96.70;;;;;;5061152;28;20060;-84
2022/07/30 02:07:10;;;;;;;7.05;3.75;;;27.50;96.70;;;;;;5080341;28;20048;-85
2022/07/30 02:09:47;;;;;;;5.10;3.30;;;27.50;96.70;;;;;;5060430;28;20083;-85
2022/07/30 02:12:27;;;;;;;8.57;3.42;;;27.50;96.70;;;;;;5064335;28;20059;-85
2022/07/30 02:15:13;;;;;;;5.28;3.33;;;27.50;96.70;;;;;;5066190;28;20056;-84
2022/07/30 02:17:44;;;;;;;6.18;3.33;;;27.40;96.70;;;;;;5062884;28;20048;-84
2022/07/30 02:20:16;;;;;;;8.25;3.60;;;27.40;96.70;;;;;;5080106;28;20044;-84
2022/07/30 02:22:47;;;;;;;8.20;3.65;;;27.40;96.70;;;;;;5059798;28;20075;-84
2022/07/30 02:25:19;;;;;;;10.43;3.85;;;27.30;96.70;;;;;;5050245;28;20055;-85
2022/07/30 02:27:57;;;;;;;5.03;3.72;;;27.40;96.70;;;;;;5049360;28;20284;-84
2022/07/30 02:30:30;;;;;;;5.68;2.95;;;27.40;96.70;;;;;;5075942;28;20143;-85
2022/07/30 02:33:04;;;;;;;10.77;3.25;;;27.40;96.70;;;;;;5071348;28;20049;-85
2022/07/30 02:35:34;;;;;;;5.60;3.38;;;27.30;96.70;;;;;;5053029;28;20060;-85
2022/07/30 02:38:04;;;;;;;6.95;3.33;;;27.30;96.70;;;;;;5072334;28;20044;-84
2022/07/30 02:40:32;;;;;;;6.07;2.78;;;27.30;96.70;;;;;;5069508;28;20056;-85
2022/07/30 02:43:02;;;;;;;5.85;3.08;;;27.30;96.70;;;;;;5065158;28;20060;-84
2022/07/30 02:45:31;;;;;;;6.28;2.92;;;27.40;96.70;;;;;;5084069;28;20070;-85
2022/07/30 02:48:03;;;;;;;5.82;2.90;;;27.50;96.70;;;;;;5064068;28;20051;-85
2022/07/30 02:50:32;;;;;;;8.50;3.10;;;27.50;96.70;;;;;;5033128;28;20056;-85
2022/07/30 02:53:02;;;;;;;6.07;3.00;;;27.50;96.70;;;;;;5062819;28;20044;-85
2022/07/30 02:55:34;;;;;;;6.20;2.90;;;27.50;96.70;;;;;;5077281;28;20059;-84
2022/07/30 02:58:05;;;;;;;4.25;3.13;;;27.40;96.70;;;;;;5082102;28;20040;-85
2022/07/30 03:00:34;;;;;;;6.97;3.40;;;27.40;96.70;;;;;;5071570;28;20044;-85
2022/07/30 03:03:06;;;;;;;6.13;3.20;;;27.40;96.70;;;;;;5074686;28;20049;-85
2022/07/30 03:05:38;;;;;;;5.78;3.47;;;27.50;96.70;;;;;;5061918;28;20048;-85
2022/07/30 03:08:08;;;;;;;6.47;3.20;;;27.50;96.70;;;;;;5052730;28;20163;-84
2022/07/30 03:10:38;;;;;;;9.20;3.45;;;27.40;96.70;;;;;;5073441;28;20048;-85
2022/07/30 03:13:09;;;;;;;7.53;3.33;;;27.20;96.70;;;;;;5064889;28;20045;-84
2022/07/30 03:15:44;;;;;;;4.40;3.05;;;27.10;96.70;;;;;;5077257;28;20064;-85
2022/07/30 03:18:15;;;;;;;6.38;3.22;;;27.00;96.70;;;;;;5064035;28;20049;-85
2022/07/30 03:20:46;;;;;;;4.78;3.22;;;27.00;96.70;;;;;;5056630;28;20109;-87
2022/07/30 03:23:18;;;;;;;6.97;3.00;;;27.00;96.70;;;;;;5043849;28;20498;-87
2022/07/30 03:25:51;;;;;;;8.88;3.60;;;27.00;96.70;;;;;;5066651;28;20044;-86
2022/07/30 03:28:24;;;;;;;5.55;3.45;;;27.00;96.70;;;;;;5052004;28;20071;-87
2022/07/30 03:30:53;;;;;;;6.97;3.60;;;27.00;96.70;;;;;;5064334;28;20045;-87
2022/07/30 03:33:22;;;;;;;8.32;3.30;;;27.00;96.70;;;;;;5091495;28;20043;-86
2022/07/30 03:36:06;;;;;;;6.50;3.60;;;27.10;96.70;;;;;;5081597;28;20095;-86
2022/07/30 03:38:36;;;;;;;6.30;3.03;;;27.10;96.70;;;;;;5066417;28;20040;-87
2022/07/30 03:41:05;;;;;;;5.28;3.45;;;27.00;96.70;;;;;;5080816;28;20056;-87
2022/07/30 03:43:36;;;;;;;5.82;3.40;;;27.00;96.70;;;;;;5082894;28;20505;-87
2022/07/30 03:46:06;;;;;;;7.65;3.50;;;27.10;96.70;;;;;;5054579;28;20066;-86
2022/07/30 03:48:39;;;;;;;7.75;2.95;;;27.10;96.70;;;;;;5057780;28;20497;-87
2022/07/30 03:51:09;;;;;;;3.80;3.22;;;27.10;96.70;;;;;;5067633;28;20052;-86
2022/07/30 03:53:41;;;;;;;5.32;3.13;;;27.10;96.70;;;;;;5070057;28;20643;-87
2022/07/30 03:56:36;;;;;;;8.50;3.28;;;27.00;96.70;;;;;;5060120;28;20071;-87
2022/07/30 03:59:09;;;;;;;6.93;3.65;;;26.90;96.70;;;;;;5066264;28;20040;-87
2022/07/30 04:01:43;;;;;;;5.73;3.20;;;27.00;96.70;;;;;;5077702;28;20139;-86
2022/07/30 04:04:29;;;;;;;4.22;2.90;;;27.00;96.70;;;;;;5063540;28;20524;-86
2022/07/30 04:06:58;;;;;;;6.55;3.08;;;26.90;96.70;;;;;;5069939;28;20053;-87
2022/07/30 04:09:28;;;;;;;7.35;3.00;;;26.90;96.70;;;;;;5077091;28;20041;-87
2022/07/30 04:12:08;;;;;;;6.57;2.65;;;26.90;96.70;;;;;;5095859;28;20044;-84
2022/07/30 04:14:42;;;;;;;4.90;2.80;;;26.90;96.70;;;;;;5092732;28;20044;-84
2022/07/30 04:17:16;;;;;;;6.68;3.10;;;26.90;96.70;;;;;;5068824;28;20044;-84
2022/07/30 04:19:49;;;;;;;4.25;2.90;;;26.90;96.70;;;;;;5061177;28;20044;-84
2022/07/30 04:22:22;;;;;;;6.20;2.95;;;26.90;96.70;;;;;;5085079;28;20101;-83
2022/07/30 04:24:52;;;;;;;6.13;2.95;;;26.70;96.70;;;;;;5073343;28;20048;-83
2022/07/30 04:27:20;;;;;;;5.25;2.90;;;26.80;96.70;;;;;;5066204;28;20110;-84
2022/07/30 04:29:50;;;;;;;4.03;2.60;;;26.80;96.70;;;;;;5094366;28;20558;-84
2022/07/30 04:32:18;;;;;;;5.90;2.72;;;26.80;96.70;;;;;;5075761;28;20499;-83
2022/07/30 04:34:54;;;;;;;5.40;2.72;;;26.70;96.70;;;;;;5069617;28;20047;-84
2022/07/30 04:37:48;;;;;;;5.60;2.85;;;26.70;96.70;;;;;;5046135;28;20052;-84
2022/07/30 04:40:17;;;;;;;6.45;3.30;;;26.80;96.70;;;;;;5057480;28;20055;-84
2022/07/30 04:42:46;;;;;;;7.22;3.30;;;26.80;96.70;;;;;;5061483;28;20481;-84
2022/07/30 04:45:16;;;;;;;4.25;2.88;;;26.80;96.70;;;;;;5069770;28;20036;-84
2022/07/30 04:47:52;;;;;;;5.57;3.10;;;26.70;96.70;;;;;;5064222;28;20139;-83
2022/07/30 04:50:44;;;;;;;5.63;2.92;;;26.70;96.70;;;;;;5073253;28;20178;-84
2022/07/30 04:53:18;;;;;;;4.75;3.05;;;26.60;96.70;;;;;;5065578;28;20064;-84
2022/07/30 04:55:54;;;;;;;4.80;3.28;;;26.60;96.70;;;;;;5058071;28;20044;-84
2022/07/30 04:58:27;;;;;;;6.78;3.03;;;26.50;96.70;;;;;;5049359;28;20144;-83
2022/07/30 05:00:59;;;;;;;5.10;3.00;;;26.40;96.70;;;;;;5060408;28;20171;-84
2022/07/30 05:03:32;;;;;;;7.20;3.47;;;26.30;96.70;;;;;;5038514;28;20067;-84
2022/07/30 05:06:01;;;;;;;6.63;3.50;;;26.40;96.70;;;;;;5069276;28;20118;-83
2022/07/30 05:08:33;;;;;;;8.45;3.20;;;26.30;96.70;;;;;;5066794;28;20108;-84
2022/07/30 05:11:05;;;;;;;6.95;3.33;;;26.30;96.70;;;;;;5082875;28;20064;-84
2022/07/30 05:13:33;;;;;;;5.22;3.50;;;26.30;96.70;;;;;;5094462;28;20082;-83
2022/07/30 05:16:10;;;;;;;6.15;3.42;;;26.30;96.70;;;;;;5083726;28;20040;-84
2022/07/30 05:18:38;;;;;;;8.32;3.78;;;26.30;96.70;;;;;;5051913;28;20086;-83
2022/07/30 05:21:07;;;;;;;8.23;3.15;;;26.30;96.70;;;;;;5037086;28;20406;-83
2022/07/30 05:23:37;;;;;;;6.22;3.47;;;26.30;96.70;;;;;;5084378;28;20101;-83
2022/07/30 05:26:18;;;;;;;5.47;2.90;;;26.40;96.70;;;;;;5080497;28;20121;-83
2022/07/30 05:28:48;;;;;;;6.85;3.40;;;26.50;96.70;;;;;;5084396;28;20563;-83
2022/07/30 05:31:29;;;;;;;5.55;3.05;;;26.50;96.70;;;;;;5072429;28;20063;-83
2022/07/30 05:34:02;;;;;;;4.60;3.15;;;26.60;96.70;;;;;;5061989;28;20053;-85
2022/07/30 05:36:43;;;;;;;6.70;3.17;;;26.60;96.70;;;;;;5065656;28;20048;-84
2022/07/30 05:39:15;;;;;;;7.63;3.75;;;26.60;96.70;;;;;;5068147;28;20339;-84
2022/07/30 05:41:52;;;;;;;7.07;3.20;;;26.70;96.70;;;;;;5063617;28;20430;-86
2022/07/30 05:44:32;;;;;;;5.50;3.78;;;26.60;96.70;;;;;;5047791;28;20259;-85
2022/07/30 05:47:02;;;;;;;8.35;3.75;;;26.50;96.70;;;;;;5075680;28;20048;-86
2022/07/30 05:49:30;;;;;;;6.85;3.42;;;26.60;96.70;;;;;;5050618;28;20048;-83
2022/07/30 05:52:06;;;;;;;4.60;3.80;;;26.60;96.70;;;;;;5076712;28;20116;-90
2022/07/30 05:54:34;;;;;;;5.40;3.60;;;26.60;96.70;;;;;;5072553;28;20049;-87
2022/07/30 05:57:17;;;;;;;5.57;4.25;;;26.60;96.70;;;;;;5076027;28;20064;-89
2022/07/30 05:59:46;;;;;;;8.57;3.78;;;26.50;96.70;;;;;;5067696;28;20063;-86
2022/07/30 06:02:39;;;;;;;7.07;3.72;;;26.50;96.70;;;;;;5055797;28;20056;-87
2022/07/30 06:05:22;;;;;;;9.68;4.35;;;26.60;96.70;;;;;;5058780;28;20513;-87
2022/07/30 06:07:51;;;;;;;7.93;3.80;;;26.70;96.70;;;;;;5085149;28;20044;-85
2022/07/30 06:10:22;;;;;;;7.93;4.15;;;26.60;96.70;;;;;;5081041;28;20040;-84
2022/07/30 06:12:50;;;;;;;5.93;3.40;;;26.60;96.70;;;;;;5074697;28;20105;-84
2022/07/30 06:15:19;;;;;;;7.32;3.90;;;26.70;96.70;;;;;;5063515;28;20570;-84
2022/07/30 06:17:55;;;;;;;5.63;3.50;;;26.80;96.70;;;;;;5070587;28;20103;-84
2022/07/30 06:21:00;;;;;;;5.82;3.55;;;26.90;96.70;;;;;;5018912;28;20057;-84
2022/07/30 06:24:04;;;;;;;5.28;3.25;;;27.10;96.70;;;;;;4950927;28;20047;-85
2022/07/30 06:26:58;;;;;;;8.80;3.72;;;27.10;96.70;;;;;;5011057;28;20053;-85
2022/07/30 06:29:27;;;;;;;6.97;4.00;;;27.30;96.70;;;;;;5012701;28;20133;-85
2022/07/30 06:31:55;;;;;;;8.38;3.80;;;27.40;96.70;;;;;;4996370;28;20576;-86
2022/07/30 06:34:25;;;;;;;8.70;3.90;;;27.50;96.70;;;;;;5006070;28;20124;-86
2022/07/30 06:36:53;;;;;;;6.13;3.53;;;27.50;96.70;;;;;;5015664;28;20077;-85
2022/07/30 06:39:22;;;;;;;6.22;3.50;;;27.50;96.70;;;;;;4994162;28;20137;-86
2022/07/30 06:42:19;;;;;;;5.78;3.50;;;27.50;96.70;;;;;;5013767;28;20448;-92
2022/07/30 06:45:07;;;;;;;7.57;3.85;;;27.50;96.70;;;;;;5008572;28;20158;-87
2022/07/30 06:48:04;;;;;;;4.93;3.55;;;27.50;96.70;;;;;;5017811;28;20046;-86
2022/07/30 06:50:36;;;;;;;8.20;4.38;;;27.60;96.70;;;;;;5007158;28;20053;-86
2022/07/30 06:53:04;;;;;;;7.22;3.45;;;27.60;96.70;;;;;;5000378;28;20260;-84
2022/07/30 06:55:52;;;;;;;9.30;4.53;;;27.80;96.70;;;;;;5011278;28;20060;-85
2022/07/30 06:58:28;;;;;;;7.57;4.43;;;27.90;96.70;;;;;;5057983;28;20052;-85
2022/07/30 07:01:22;;;;;;;9.52;3.75;;;27.90;96.70;;;;;;5074437;28;20546;-83
2022/07/30 07:03:51;;;;;;;5.45;3.65;;;27.90;96.70;;;;;;5073732;28;20048;-85
2022/07/30 07:06:21;;;;;;;4.85;3.60;;;28.00;96.70;;;;;;5060277;28;20044;-85
2022/07/30 07:08:50;;;;;;;7.57;3.63;;;28.10;96.70;;;;;;5060590;28;20087;-85
2022/07/30 07:11:28;;;;;;;5.22;3.08;;;28.10;96.70;;;;;;5050554;28;20040;-84
2022/07/30 07:13:57;;;;;;;8.30;3.60;;;28.10;96.70;;;;;;5065757;28;20045;-82
2022/07/30 07:16:34;;;;;;;5.03;3.05;;;28.20;96.70;;;;;;5065445;28;20617;-85
2022/07/30 07:19:25;;;;;;;8.43;3.53;;;28.20;96.70;;;;;;5048269;28;20052;-85
2022/07/30 07:22:15;;;;;;;6.60;3.40;;;28.10;96.70;;;;;;5065715;28;20795;-85
2022/07/30 07:24:44;;;;;;;5.95;3.17;;;28.10;96.70;;;;;;5070718;28;20133;-85
2022/07/30 07:27:21;;;;;;;7.70;3.72;;;28.10;96.70;;;;;;5057434;28;20490;-85
2022/07/30 07:29:54;;;;;;;6.88;3.00;;;28.10;96.70;;;;;;5080133;28;20040;-85
2022/07/30 07:32:35;;;;;;;5.78;3.40;;;28.20;96.70;;;;;;5060439;28;20041;-85
2022/07/30 07:35:05;;;;;;;8.10;3.63;;;28.30;96.70;;;;;;5068633;28;20037;-85
2022/07/30 07:37:38;;;;;;;6.55;3.10;;;28.30;96.70;;;;;;5056806;28;20450;-82
2022/07/30 07:40:09;;;;;;;4.88;2.95;;;28.40;96.70;;;;;;5072284;28;20055;-83
2022/07/30 07:42:41;;;;;;;5.13;3.00;;;28.50;96.70;;;;;;5068849;28;20047;-86
2022/07/30 07:45:10;;;;;;;4.63;2.85;;;28.60;96.70;;;;;;5087789;28;20059;-85
2022/07/30 07:47:48;;;;;;;7.05;3.45;;;28.60;96.70;;;;;;5081286;28;20036;-85
2022/07/30 07:50:44;;;;;;;5.53;3.35;;;28.70;96.70;;;;;;5082616;28;20064;-83
2022/07/30 07:53:27;;;;;;;10.18;7.35;;;28.70;96.70;;;;;;5057456;28;20127;-82
2022/07/30 07:55:55;;;;;;;9.63;5.82;;;28.80;96.70;;;;;;5079311;28;20397;-83
2022/07/30 07:58:25;;;;;;;7.65;3.60;;;28.80;96.70;;;;;;5083247;28;20361;-78
2022/07/30 08:00:57;;;;;;;5.88;3.53;;;28.80;96.70;;;;;;5057264;28;20097;-84
2022/07/30 08:03:45;;;;;;;6.82;3.20;;;28.80;96.70;;;;;;5086686;28;20128;-83
2022/07/30 08:06:35;;;;;;;6.53;3.28;;;29.00;96.70;;;;;;5055062;28;20078;-82
2022/07/30 08:09:24;;;;;;;5.07;3.25;;;29.10;96.70;;;;;;5067055;28;20055;-80
2022/07/30 08:12:08;;;;;;;7.35;3.90;;;29.10;96.70;;;;;;5055716;28;20481;-80
2022/07/30 08:15:08;;;;;;;5.18;3.03;;;29.10;96.70;;;;;;5051140;28;20053;-81
2022/07/30 08:17:57;;;;;;;7.25;3.80;;;29.10;96.70;;;;;;5027401;28;20049;-79
2022/07/30 08:20:51;;;;;;;5.30;3.72;;;29.20;96.70;;;;;;5052577;28;20061;-80
2022/07/30 08:23:25;;;;;;;6.65;3.72;;;29.20;96.70;;;;;;5071475;28;20084;-81
2022/07/30 08:25:57;;;;;;;7.93;3.65;;;29.10;96.70;;;;;;5064538;28;20131;-82
2022/07/30 08:28:26;;;;;;;5.63;4.10;;;28.90;96.70;;;;;;5075985;28;20135;-80
2022/07/30 08:31:06;;;;;;;6.57;3.90;;;29.00;96.70;;;;;;5074256;28;20261;-79
2022/07/30 08:33:34;;;;;;;7.22;4.00;;;29.10;96.70;;;;;;5069839;28;20052;-79
2022/07/30 08:36:04;;;;;;;6.28;3.75;;;29.30;96.70;;;;;;5061999;28;20044;-80
2022/07/30 08:38:38;;;;;;;5.82;3.40;;;29.50;96.70;;;;;;5055238;28;20059;-81
2022/07/30 08:41:09;;;;;;;6.03;4.05;;;29.50;96.70;;;;;;5063129;28;20044;-80
2022/07/30 08:43:39;;;;;;;7.43;3.53;;;29.60;96.70;;;;;;5078890;28;20048;-83
2022/07/30 08:46:09;;;;;;;6.63;3.55;;;29.80;96.70;;;;;;5062784;28;20139;-83
2022/07/30 08:49:07;;;;;;;5.45;3.42;;;29.80;96.70;;;;;;5024187;28;20045;-85
2022/07/30 08:51:39;;;;;;;4.30;3.50;;;29.80;96.70;;;;;;5025857;28;20053;-85
2022/07/30 08:54:39;;;;;;;5.70;3.58;;;29.80;96.70;;;;;;5035907;28;20140;-84
2022/07/30 08:57:10;;;;;;;5.13;3.35;;;29.70;96.70;;;;;;5022629;28;20052;-81
2022/07/30 08:59:42;;;;;;;4.93;3.50;;;29.60;96.70;;;;;;5023879;28;20073;-80
2022/07/30 09:02:30;;;;;;;5.97;3.45;;;29.70;96.70;;;;;;5011801;28;20574;-82
2022/07/30 09:05:05;;;;;;;7.23;3.33;;;29.90;96.70;;;;;;5018297;28;20084;-82
2022/07/30 09:07:35;;;;;;;6.90;3.70;;;30.00;96.70;;;;;;5027417;28;20045;-81
2022/07/30 09:10:07;;;;;;;5.88;3.28;;;30.10;96.70;;;;;;5032054;28;20507;-78
2022/07/30 09:12:39;;;;;;;8.40;3.78;;;30.20;96.70;;;;;;5008938;28;20408;-78
2022/07/30 09:15:10;;;;;;;4.88;2.70;;;30.20;96.70;;;;;;5022614;28;20057;-78
2022/07/30 09:17:47;;;;;;;6.63;3.63;;;30.10;96.70;;;;;;5004943;28;20061;-82
2022/07/30 09:20:16;;;;;;;9.60;3.58;;;29.90;96.70;;;;;;5007948;28;20081;-83
2022/07/30 09:22:47;;;;;;;4.85;3.47;;;30.10;96.70;;;;;;5036389;28;20037;-83
2022/07/30 09:25:36;;;;;;;8.23;2.95;;;30.30;96.70;;;;;;5030562;28;20175;-83
2022/07/30 09:28:31;;;;;;;6.75;2.83;;;30.30;96.70;;;;;;5036006;28;20052;-84
2022/07/30 09:31:15;;;;;;;6.47;2.67;;;30.50;96.70;;;;;;5059325;28;20052;-82
2022/07/30 09:34:03;;;;;;;4.45;2.88;;;30.50;96.70;;;;;;5065607;28;20060;-83
2022/07/30 09:36:49;;;;;;;4.68;3.15;;;30.70;96.70;;;;;;5056460;28;20125;-82
2022/07/30 09:39:38;;;;;;;5.32;2.72;;;30.80;96.70;;;;;;5061933;28;20051;-80
2022/07/30 09:42:19;;;;;;;4.13;2.42;;;30.90;96.70;;;;;;5079217;28;20052;-80
2022/07/30 09:45:03;;;;;;;2.70;2.42;;;30.90;96.70;;;;;;5061287;28;20047;-81
2022/07/30 09:47:33;;;;;;;6.13;2.47;;;31.00;96.70;;;;;;5073754;28;20114;-79
2022/07/30 09:50:04;;;;;;;4.32;2.20;;;31.10;96.70;;;;;;5054868;28;20526;-78
2022/07/30 09:52:53;;;;;;;6.05;2.83;;;31.20;96.70;;;;;;5052707;28;20076;-79
2022/07/30 09:55:32;;;;;;;5.55;2.53;;;31.10;96.70;;;;;;5048060;28;20794;-78
2022/07/30 09:58:02;;;;;;;4.90;2.58;;;31.00;96.70;;;;;;5054059;28;20052;-78
2022/07/30 10:00:34;;;;;;;7.80;2.97;;;31.00;96.70;;;;;;5070859;28;20044;-77
2022/07/30 10:03:29;;;;;;;3.67;2.40;;;31.10;96.70;;;;;;5029086;28;20061;-76
2022/07/30 10:06:46;;;;;;;4.47;2.00;;;31.30;96.70;;;;;;5041810;28;20053;-78
2022/07/30 10:09:29;;;;;;;5.40;2.55;;;31.30;96.70;;;;;;5030830;28;20167;-79
2022/07/30 10:11:59;;;;;;;3.63;2.30;;;31.50;96.70;;;;;;5051006;28;20075;-79
2022/07/30 10:14:33;;;;;;;13.02;3.03;;;31.60;96.70;;;;;;5019058;28;20057;-78
2022/07/30 10:17:11;;;;;;;4.70;2.50;;;31.70;96.70;;;;;;5035580;28;20053;-80
2022/07/30 10:19:48;;;;;;;4.70;2.30;;;31.80;96.70;;;;;;5062859;28;20356;-78
2022/07/30 10:22:36;;;;;;;4.85;2.00;;;31.90;96.70;;;;;;5030373;28;20779;-78
2022/07/30 10:25:17;;;;;;;2.88;2.40;;;32.10;96.70;;;;;;5042384;28;20057;-82
2022/07/30 10:28:23;;;;;;;5.15;2.10;;;32.10;96.70;;;;;;5039249;28;20053;-84
2022/07/30 10:30:53;;;;;;;5.43;2.33;;;32.20;96.70;;;;;;5021883;28;20511;-85
2022/07/30 10:33:25;;;;;;;3.92;2.22;;;32.20;96.70;;;;;;5028957;28;20045;-84
2022/07/30 10:36:10;;;;;;;3.15;2.17;;;32.00;96.70;;;;;;5046201;28;20063;-84
2022/07/30 10:38:42;;;;;;;4.72;1.98;;;32.10;96.70;;;;;;5029125;28;20063;-83
2022/07/30 10:41:36;;;;;;;5.95;2.17;;;32.30;96.70;;;;;;5042029;28;20042;-83
2022/07/30 10:44:45;;;;;;;4.32;2.10;;;32.40;96.70;;;;;;5045637;28;20041;-83
2022/07/30 10:47:17;;;;;;;4.88;1.88;;;32.50;96.70;;;;;;5040084;28;20047;-84
2022/07/30 10:50:05;;;;;;;3.20;1.92;;;32.70;96.70;;;;;;5047117;28;20057;-82
2022/07/30 10:52:45;;;;;;;5.60;1.98;;;32.90;96.70;;;;;;5036558;28;20048;-81
2022/07/30 10:55:15;;;;;;;5.25;2.10;;;33.00;96.70;;;;;;5046199;28;20044;-80
2022/07/30 10:58:04;;;;;;;8.73;1.83;;;33.00;96.70;;;;;;5041974;28;20123;-82
2022/07/30 11:00:34;;;;;;;2.83;1.65;;;32.70;96.70;;;;;;5056497;28;20082;-83
2022/07/30 11:03:19;;;;;;;9.52;2.10;;;32.90;96.70;;;;;;5034529;28;20106;-83
2022/07/30 11:06:12;;;;;;;9.00;2.38;;;33.30;96.70;;;;;;5084799;28;20077;-82
2022/07/30 11:08:41;;;;;;;24.52;4.13;;;33.60;96.70;;;;;;5063160;28;20041;-82
2022/07/30 11:11:44;;;;;;;17.50;3.30;;;33.50;96.70;;;;;;5075239;28;20072;-78
2022/07/30 11:14:57;;;;;;;7.05;2.50;;;33.20;96.70;;;;;;5061127;28;20052;-80
2022/07/30 11:18:07;;;;;;;4.88;2.20;;;33.40;96.70;;;;;;5060108;28;20529;-80
2022/07/30 11:20:40;;;;;;;5.07;1.98;;;33.60;96.70;;;;;;5079580;28;20857;-80
2022/07/30 11:23:38;;;;;;;6.32;2.05;;;33.70;96.70;;;;;;5078436;28;20604;-82
2022/07/30 11:26:07;;;;;;;4.63;1.77;;;34.00;96.70;;;;;;5058479;28;20060;-84
2022/07/30 11:28:43;;;;;;;2.92;2.00;;;34.10;96.70;;;;;;5067184;28;20037;-86
2022/07/30 11:31:30;;;;;;;7.22;1.73;;;34.00;96.70;;;;;;5083557;28;20040;-86
2022/07/30 11:34:27;;;;;;;4.93;1.80;;;34.10;96.70;;;;;;5083879;28;20454;-83
2022/07/30 11:37:11;;;;;;;5.75;2.05;;;33.70;96.70;;;;;;5085764;28;20044;-86
2022/07/30 11:40:13;;;;;;;4.57;1.73;;;33.70;96.70;;;;;;5063956;28;20135;-85
2022/07/30 11:42:41;;;;;;;4.97;2.03;;;33.60;96.70;;;;;;5042909;28;20135;-85
2022/07/30 11:45:25;;;;;;;7.88;2.22;;;33.20;96.70;;;;;;5065748;28;20131;-87
2022/07/30 11:47:56;;;;;;;2.00;1.60;;;33.00;96.70;;;;;;5084837;28;20068;-86
2022/07/30 11:50:27;;;;;;;34.35;30.75;;;33.20;96.70;;;;;;5074755;28;20052;-86
2022/07/30 11:52:58;;;;;;;4.00;2.75;;;33.00;96.70;;;;;;5064186;28;20072;-85
2022/07/30 11:55:29;;;;;;;6.85;3.22;;;33.20;96.70;;;;;;5062824;28;20051;-84
2022/07/30 11:57:59;;;;;;;4.43;2.40;;;33.40;96.70;;;;;;5078176;28;20048;-82
2022/07/30 12:00:35;;;;;;;6.32;2.45;;;33.50;96.70;;;;;;5067606;28;20048;-89
2022/07/30 12:03:08;;;;;;;10.50;4.25;;;33.50;96.70;;;;;;5086919;28;20211;-82
2022/07/30 12:05:38;;;;;;;3.13;2.22;;;33.50;96.70;;;;;;5077082;28;20049;-82
2022/07/30 12:08:06;;;;;;;4.60;2.20;;;33.60;96.70;;;;;;5084603;28;20128;-86
2022/07/30 12:10:39;;;;;;;4.35;1.98;;;33.70;96.70;;;;;;5055999;28;20044;-90
2022/07/30 12:13:09;;;;;;;6.38;2.03;;;33.70;96.70;;;;;;5069996;28;20044;-88
2022/07/30 12:15:40;;;;;;;5.18;2.20;;;33.80;96.70;;;;;;5069429;28;20048;-86
2022/07/30 12:18:12;;;;;;;6.95;2.10;;;34.00;96.70;;;;;;5072935;28;20050;-88
2022/07/30 12:20:58;;;;;;;3.85;1.95;;;33.90;96.70;;;;;;5078781;28;20052;-92
2022/07/30 12:23:27;;;;;;;5.40;2.00;;;33.90;96.70;;;;;;5070523;28;20060;-88
2022/07/30 12:25:57;;;;;;;4.45;1.95;;;33.90;96.70;;;;;;5071683;28;20040;-85
2022/07/30 12:28:28;;;;;;;19.15;17.42;;;33.90;96.70;;;;;;5068769;28;20049;-86
2022/07/30 12:30:57;;;;;;;5.78;3.63;;;33.90;96.70;;;;;;5070299;28;20036;-83
2022/07/30 12:33:26;;;;;;;5.10;3.47;;;33.90;96.70;;;;;;5054544;28;20036;-84
2022/07/30 12:35:56;;;;;;;4.68;2.72;;;33.60;96.70;;;;;;5059306;28;20111;-81
2022/07/30 12:38:26;;;;;;;3.55;2.00;;;33.80;96.70;;;;;;5067405;28;20057;-83
2022/07/30 12:41:00;;;;;;;4.10;1.92;;;34.10;96.70;;;;;;5064634;28;20067;-81
2022/07/30 12:43:47;;;;;;;3.10;2.13;;;34.10;96.70;;;;;;5060735;28;20141;-82
2022/07/30 12:46:17;;;;;;;4.38;2.22;;;34.10;96.70;;;;;;5065970;28;20044;-82
2022/07/30 12:48:54;;;;;;;15.73;14.05;;;34.10;96.70;;;;;;5059318;28;20096;-81
2022/07/30 12:51:24;;;;;;;4.57;2.80;;;34.10;96.70;;;;;;5066340;28;20052;-82
2022/07/30 12:53:54;;;;;;;4.43;2.10;;;34.10;96.70;;;;;;5078863;28;20055;-83
2022/07/30 12:56:30;;;;;;;4.35;2.25;;;34.30;96.70;;;;;;5084453;28;20047;-84
2022/07/30 12:58:58;;;;;;;6.97;5.35;;;34.20;96.70;;;;;;5061269;28;20098;-83
2022/07/30 13:01:40;;;;;;;3.25;1.60;;;34.30;96.70;;;;;;5077394;28;20494;-79
2022/07/30 13:04:09;;;;;;;3.25;1.95;;;34.10;96.70;;;;;;5072737;28;20148;-79
2022/07/30 13:06:39;;;;;;;5.03;1.83;;;34.10;96.70;;;;;;5061351;28;20037;-78
2022/07/30 13:09:18;;;;;;;8.25;7.28;;;34.10;96.70;;;;;;5074624;28;20090;-80
2022/07/30 13:11:50;;;;;;;3.90;1.73;;;34.20;96.70;;;;;;5058911;28;20037;-80
2022/07/30 13:14:21;;;;;;;3.88;2.00;;;34.20;96.70;;;;;;5081002;28;20053;-83
2022/07/30 13:16:55;;;;;;;3.85;1.60;;;34.10;96.70;;;;;;5085559;28;20552;-82
2022/07/30 13:19:25;;;;;;;3.28;1.83;;;34.20;96.70;;;;;;5062986;28;20087;-83
2022/07/30 13:21:53;;;;;;;2.85;1.67;;;34.20;96.70;;;;;;5079753;28;20115;-81
2022/07/30 13:24:24;;;;;;;6.00;1.50;;;34.30;96.70;;;;;;5054451;28;20060;-81
2022/07/30 13:26:54;;;;;;;4.72;1.70;;;34.50;96.70;;;;;;5044386;28;20052;-83
2022/07/30 13:29:23;;;;;;;2.63;1.55;;;34.70;96.70;;;;;;5062882;28;20059;-80
2022/07/30 13:31:51;;;;;;;4.38;1.50;;;34.80;96.70;;;;;;5062739;28;20051;-83